createdAt,value
2018-01-15T00:00:40.835Z,1012.37
2018-01-15T00:01:40.933Z,1012.39
2018-01-15T00:02:40.757Z,1012.44
2018-01-15T00:03:40.799Z,1012.36
2018-01-15T00:04:40.694Z,1012.38
2018-01-15T00:05:40.760Z,1012.41
2018-01-15T00:06:40.667Z,1012.42
2018-01-15T00:07:40.592Z,1012.39
2018-01-15T00:08:40.642Z,1012.30
2018-01-15T00:09:40.527Z,1012.27
2018-01-15T00:10:40.626Z,1012.28
2018-01-15T00:11:40.465Z,1012.28
2018-01-15T00:12:40.514Z,1012.28
2018-01-15T00:13:41.788Z,1012.29
2018-01-15T00:14:40.451Z,1012.30
2018-01-15T00:15:40.342Z,1012.22
2018-01-15T00:16:40.447Z,1012.22
2018-01-15T00:17:40.280Z,1012.20
2018-01-15T00:18:40.310Z,1012.16
2018-01-15T00:19:40.210Z,1012.10
2018-01-15T00:20:40.177Z,1012.05
2018-01-15T00:21:40.214Z,1012.07
2018-01-15T00:22:40.113Z,1012.03
2018-01-15T00:23:40.134Z,1012.00
2018-01-15T00:24:40.052Z,1012.01
2018-01-15T00:25:40.041Z,1011.99
2018-01-15T00:26:40.041Z,1012.09
2018-01-15T00:27:40.049Z,1012.01
2018-01-15T00:28:39.920Z,1012.03
2018-01-15T00:29:39.959Z,1012.02
2018-01-15T00:30:39.874Z,1012.03
2018-01-15T00:31:39.873Z,1012.04
2018-01-15T00:32:39.791Z,1012.05
2018-01-15T00:33:39.818Z,1012.06
2018-01-15T00:34:39.724Z,1012.03
2018-01-15T00:35:39.791Z,1012.08
2018-01-15T00:36:39.669Z,1012.04
2018-01-15T00:37:39.713Z,1012.05
2018-01-15T00:38:39.600Z,1012.00
2018-01-15T00:39:39.661Z,1012.05
2018-01-15T00:40:39.576Z,1011.99
2018-01-15T00:41:39.590Z,1012.07
2018-01-15T00:42:39.476Z,1012.04
2018-01-15T00:43:39.520Z,1012.00
2018-01-15T00:44:39.405Z,1011.94
2018-01-15T00:45:39.420Z,1011.94
2018-01-15T00:46:39.343Z,1011.90
2018-01-15T00:47:39.418Z,1011.90
2018-01-15T00:48:39.275Z,1011.90
2018-01-15T00:49:39.334Z,1011.89
2018-01-15T00:50:39.212Z,1011.82
2018-01-15T00:51:39.287Z,1011.77
2018-01-15T00:52:39.153Z,1011.67
2018-01-15T00:53:39.197Z,1011.71
2018-01-15T00:54:39.091Z,1011.71
2018-01-15T00:55:39.122Z,1011.67
2018-01-15T00:56:39.036Z,1011.67
2018-01-15T00:57:39.087Z,1011.63
2018-01-15T00:58:38.962Z,1011.60
2018-01-15T00:59:39.080Z,1011.62
2018-01-15T01:00:38.891Z,1011.63
2018-01-15T01:01:38.857Z,1011.65
2018-01-15T01:02:38.824Z,1011.61
2018-01-15T01:03:38.796Z,1011.58
2018-01-15T01:04:38.763Z,1011.59
2018-01-15T01:05:38.735Z,1011.62
2018-01-15T01:06:38.867Z,1011.62
2018-01-15T01:07:38.664Z,1011.53
2018-01-15T01:08:38.701Z,1011.55
2018-01-15T01:09:38.614Z,1011.59
2018-01-15T01:10:38.628Z,1011.54
2018-01-15T01:11:38.552Z,1011.50
2018-01-15T01:12:38.569Z,1011.44
2018-01-15T01:13:38.480Z,1011.43
2018-01-15T01:14:38.543Z,1011.41
2018-01-15T01:15:38.415Z,1011.40
2018-01-15T01:16:38.412Z,1011.39
2018-01-15T01:17:38.352Z,1011.36
2018-01-15T01:18:38.368Z,1011.38
2018-01-15T01:19:38.287Z,1011.34
2018-01-15T01:20:38.349Z,1011.35
2018-01-15T01:21:38.215Z,1011.38
2018-01-15T01:22:38.200Z,1011.35
2018-01-15T01:23:38.154Z,1011.38
2018-01-15T01:24:38.126Z,1011.36
2018-01-15T01:25:38.104Z,1011.32
2018-01-15T01:26:38.067Z,1011.27
2018-01-15T01:27:38.074Z,1011.37
2018-01-15T01:28:37.996Z,1011.35
2018-01-15T01:29:37.968Z,1011.29
2018-01-15T01:30:37.948Z,1011.33
2018-01-15T01:31:37.947Z,1011.30
2018-01-15T01:32:37.865Z,1011.29
2018-01-15T01:33:37.874Z,1011.33
2018-01-15T01:34:37.801Z,1011.27
2018-01-15T01:35:37.773Z,1011.28
2018-01-15T01:36:37.750Z,1011.24
2018-01-15T01:37:37.702Z,1011.27
2018-01-15T01:38:37.675Z,1011.20
2018-01-15T01:39:37.636Z,1011.15
2018-01-15T01:40:37.615Z,1011.25
2018-01-15T01:41:37.578Z,1011.18
2018-01-15T01:42:37.551Z,1011.20
2018-01-15T01:43:37.515Z,1011.18
2018-01-15T01:44:37.491Z,1011.14
2018-01-15T01:45:37.455Z,1011.04
2018-01-15T01:46:37.424Z,1011.14
2018-01-15T01:47:37.386Z,1011.06
2018-01-15T01:48:37.353Z,1011.04
2018-01-15T01:49:37.318Z,1010.99
2018-01-15T01:50:37.366Z,1011.00
2018-01-15T01:51:37.306Z,1011.09
2018-01-15T01:52:37.305Z,1011.00
2018-01-15T01:53:37.194Z,1011.07
2018-01-15T01:54:37.201Z,1011.08
2018-01-15T01:55:37.128Z,1011.12
2018-01-15T01:56:37.234Z,1011.06
2018-01-15T01:57:37.108Z,1011.13
2018-01-15T01:58:37.075Z,1011.16
2018-01-15T01:59:37.008Z,1011.08
2018-01-15T02:00:37.022Z,1011.06
2018-01-15T02:01:36.951Z,1011.03
2018-01-15T02:02:36.953Z,1011.00
2018-01-15T02:03:36.901Z,1011.02
2018-01-15T02:04:36.842Z,1010.94
2018-01-15T02:05:36.836Z,1011.03
2018-01-15T02:06:36.845Z,1010.92
2018-01-15T02:07:36.742Z,1010.97
2018-01-15T02:08:36.774Z,1010.82
2018-01-15T02:09:36.679Z,1010.85
2018-01-15T02:10:36.721Z,1010.82
2018-01-15T02:11:36.619Z,1010.80
2018-01-15T02:12:36.638Z,1010.84
2018-01-15T02:13:36.614Z,1010.88
2018-01-15T02:14:36.574Z,1010.87
2018-01-15T02:15:36.493Z,1010.85
2018-01-15T02:16:36.511Z,1010.84
2018-01-15T02:17:36.429Z,1010.91
2018-01-15T02:18:36.418Z,1010.85
2018-01-15T02:19:36.360Z,1010.75
2018-01-15T02:20:36.365Z,1010.79
2018-01-15T02:21:36.294Z,1010.69
2018-01-15T02:22:36.261Z,1010.69
2018-01-15T02:23:36.230Z,1010.74
2018-01-15T02:24:36.200Z,1010.71
2018-01-15T02:25:36.169Z,1010.68
2018-01-15T02:26:36.135Z,1010.59
2018-01-15T02:27:36.103Z,1010.64
2018-01-15T02:28:36.088Z,1010.58
2018-01-15T02:29:36.041Z,1010.58
2018-01-15T02:30:36.006Z,1010.56
2018-01-15T02:31:35.976Z,1010.61
2018-01-15T02:32:35.937Z,1010.61
2018-01-15T02:33:35.920Z,1010.54
2018-01-15T02:34:35.875Z,1010.52
2018-01-15T02:35:35.856Z,1010.60
2018-01-15T02:36:35.855Z,1010.50
2018-01-15T02:37:35.782Z,1010.52
2018-01-15T02:38:35.752Z,1010.53
2018-01-15T02:39:35.727Z,1010.48
2018-01-15T02:40:35.698Z,1010.41
2018-01-15T02:41:35.654Z,1010.42
2018-01-15T02:42:35.622Z,1010.41
2018-01-15T02:43:35.598Z,1010.41
2018-01-15T02:44:35.557Z,1010.44
2018-01-15T02:45:35.525Z,1010.41
2018-01-15T02:46:35.496Z,1010.37
2018-01-15T02:47:35.476Z,1010.33
2018-01-15T02:48:35.428Z,1010.37
2018-01-15T02:49:35.402Z,1010.34
2018-01-15T02:50:35.366Z,1010.22
2018-01-15T02:51:35.339Z,1010.30
2018-01-15T02:52:35.302Z,1010.19
2018-01-15T02:53:35.269Z,1010.17
2018-01-15T02:54:35.241Z,1010.13
2018-01-15T02:55:35.208Z,1010.15
2018-01-15T02:56:35.174Z,1010.09
2018-01-15T02:57:35.164Z,1010.08
2018-01-15T02:58:35.111Z,1010.07
2018-01-15T02:59:35.081Z,1010.07
2018-01-15T03:00:35.057Z,1010.05
2018-01-15T03:01:35.024Z,1010.05
2018-01-15T03:02:34.991Z,1010.10
2018-01-15T03:03:34.969Z,1010.15
2018-01-15T03:04:34.927Z,1010.04
2018-01-15T03:05:34.890Z,1010.06
2018-01-15T03:06:34.881Z,1009.94
2018-01-15T03:07:34.832Z,1009.97
2018-01-15T03:08:34.795Z,1009.94
2018-01-15T03:09:34.776Z,1009.91
2018-01-15T03:10:34.735Z,1009.92
2018-01-15T03:11:34.701Z,1009.90
2018-01-15T03:12:34.684Z,1009.87
2018-01-15T03:13:34.638Z,1009.88
2018-01-15T03:14:34.605Z,1009.90
2018-01-15T03:15:34.590Z,1009.91
2018-01-15T03:16:34.551Z,1009.93
2018-01-15T03:17:34.514Z,1009.95
2018-01-15T03:18:34.505Z,1009.99
2018-01-15T03:19:34.456Z,1009.92
2018-01-15T03:20:34.423Z,1009.94
2018-01-15T03:21:34.404Z,1009.93
2018-01-15T03:22:34.395Z,1010.02
2018-01-15T03:23:34.324Z,1009.95
2018-01-15T03:24:34.298Z,1009.90
2018-01-15T03:25:34.253Z,1009.87
2018-01-15T03:26:34.232Z,1009.83
2018-01-15T03:27:34.210Z,1009.85
2018-01-15T03:28:34.172Z,1009.89
2018-01-15T03:29:34.134Z,1009.83
2018-01-15T03:30:34.122Z,1009.82
2018-01-15T03:31:34.076Z,1009.82
2018-01-15T03:32:34.039Z,1009.81
2018-01-15T03:33:34.044Z,1009.73
2018-01-15T03:34:33.983Z,1009.71
2018-01-15T03:35:33.956Z,1009.67
2018-01-15T03:36:33.924Z,1009.66
2018-01-15T03:37:33.878Z,1009.65
2018-01-15T03:38:33.856Z,1009.63
2018-01-15T03:39:33.836Z,1009.59
2018-01-15T03:40:33.796Z,1009.57
2018-01-15T03:41:33.767Z,1009.53
2018-01-15T03:42:33.769Z,1009.54
2018-01-15T03:43:33.692Z,1009.50
2018-01-15T03:44:33.661Z,1009.46
2018-01-15T03:45:33.651Z,1009.37
2018-01-15T03:46:33.600Z,1009.37
2018-01-15T03:47:33.569Z,1009.31
2018-01-15T03:48:33.554Z,1009.29
2018-01-15T03:49:33.503Z,1009.29
2018-01-15T03:50:33.477Z,1009.24
2018-01-15T03:51:33.496Z,1009.27
2018-01-15T03:52:33.411Z,1009.23
2018-01-15T03:53:33.379Z,1009.26
2018-01-15T03:54:33.365Z,1009.23
2018-01-15T03:55:33.317Z,1009.25
2018-01-15T03:56:33.288Z,1009.27
2018-01-15T03:57:33.278Z,1009.22
2018-01-15T03:58:33.226Z,1009.20
2018-01-15T03:59:33.214Z,1009.21
2018-01-15T04:00:33.190Z,1009.14
2018-01-15T04:01:33.135Z,1009.22
2018-01-15T04:02:33.097Z,1009.17
2018-01-15T04:03:33.092Z,1009.19
2018-01-15T04:04:33.032Z,1009.22
2018-01-15T04:05:33.015Z,1009.18
2018-01-15T04:06:32.983Z,1009.13
2018-01-15T04:07:32.937Z,1009.14
2018-01-15T04:08:32.908Z,1009.19
2018-01-15T04:09:32.902Z,1009.17
2018-01-15T04:10:32.891Z,1009.14
2018-01-15T04:11:32.812Z,1009.10
2018-01-15T04:12:32.802Z,1009.12
2018-01-15T04:13:32.777Z,1009.09
2018-01-15T04:14:32.724Z,1009.07
2018-01-15T04:15:32.710Z,1009.08
2018-01-15T04:16:32.659Z,1009.06
2018-01-15T04:17:32.628Z,1009.03
2018-01-15T04:18:32.617Z,1009.06
2018-01-15T04:19:32.566Z,1009.00
2018-01-15T04:20:32.530Z,1009.01
2018-01-15T04:21:32.517Z,1009.05
2018-01-15T04:22:32.472Z,1008.96
2018-01-15T04:23:32.482Z,1008.92
2018-01-15T04:24:32.426Z,1008.92
2018-01-15T04:25:32.379Z,1008.83
2018-01-15T04:26:32.350Z,1008.86
2018-01-15T04:27:32.334Z,1008.81
2018-01-15T04:28:32.288Z,1008.76
2018-01-15T04:29:32.252Z,1008.78
2018-01-15T04:30:32.221Z,1008.72
2018-01-15T04:31:32.199Z,1008.68
2018-01-15T04:32:32.157Z,1008.70
2018-01-15T04:33:32.125Z,1008.67
2018-01-15T04:34:32.092Z,1008.68
2018-01-15T04:35:32.058Z,1008.66
2018-01-15T04:36:32.031Z,1008.70
2018-01-15T04:37:32.002Z,1008.62
2018-01-15T04:38:31.976Z,1008.65
2018-01-15T04:39:31.941Z,1008.63
2018-01-15T04:40:31.907Z,1008.61
2018-01-15T04:41:31.878Z,1008.59
2018-01-15T04:42:31.849Z,1008.61
2018-01-15T04:43:31.813Z,1008.52
2018-01-15T04:44:31.782Z,1008.51
2018-01-15T04:45:31.755Z,1008.59
2018-01-15T04:46:31.718Z,1008.55
2018-01-15T04:47:31.689Z,1008.49
2018-01-15T04:48:31.675Z,1008.52
2018-01-15T04:49:31.625Z,1008.47
2018-01-15T04:50:31.591Z,1008.50
2018-01-15T04:51:31.583Z,1008.52
2018-01-15T04:52:31.535Z,1008.49
2018-01-15T04:53:31.501Z,1008.46
2018-01-15T04:54:31.504Z,1008.48
2018-01-15T04:55:31.440Z,1008.47
2018-01-15T04:56:31.412Z,1008.50
2018-01-15T04:57:31.417Z,1008.49
2018-01-15T04:58:31.349Z,1008.45
2018-01-15T04:59:31.316Z,1008.41
2018-01-15T05:00:31.307Z,1008.44
2018-01-15T05:01:31.257Z,1008.42
2018-01-15T05:02:31.220Z,1008.37
2018-01-15T05:03:31.210Z,1008.43
2018-01-15T05:04:31.162Z,1008.35
2018-01-15T05:05:31.127Z,1008.31
2018-01-15T05:06:31.152Z,1008.33
2018-01-15T05:07:31.066Z,1008.27
2018-01-15T05:08:31.043Z,1008.28
2018-01-15T05:09:31.026Z,1008.20
2018-01-15T05:10:30.980Z,1008.26
2018-01-15T05:11:30.947Z,1008.24
2018-01-15T05:12:30.939Z,1008.15
2018-01-15T05:13:30.882Z,1008.16
2018-01-15T05:14:30.852Z,1008.20
2018-01-15T05:15:30.838Z,1008.22
2018-01-15T05:16:30.788Z,1008.10
2018-01-15T05:17:30.757Z,1008.13
2018-01-15T05:18:30.746Z,1008.11
2018-01-15T05:19:30.696Z,1008.16
2018-01-15T05:20:30.670Z,1008.13
2018-01-15T05:21:30.648Z,1008.13
2018-01-15T05:22:30.603Z,1008.08
2018-01-15T05:23:30.567Z,1008.04
2018-01-15T05:24:30.574Z,1008.05
2018-01-15T05:25:30.528Z,1008.05
2018-01-15T05:26:30.482Z,1008.02
2018-01-15T05:27:30.468Z,1007.97
2018-01-15T05:28:30.421Z,1007.96
2018-01-15T05:29:30.387Z,1007.97
2018-01-15T05:30:30.412Z,1007.90
2018-01-15T05:31:30.328Z,1007.91
2018-01-15T05:32:30.289Z,1007.89
2018-01-15T05:33:30.295Z,1007.87
2018-01-15T05:34:30.225Z,1007.95
2018-01-15T05:35:30.198Z,1007.86
2018-01-15T05:36:30.189Z,1007.84
2018-01-15T05:37:30.141Z,1007.89
2018-01-15T05:38:30.108Z,1007.82
2018-01-15T05:39:30.088Z,1007.81
2018-01-15T05:40:30.063Z,1007.80
2018-01-15T05:41:30.043Z,1007.84
2018-01-15T05:42:29.998Z,1007.83
2018-01-15T05:43:29.946Z,1007.86
2018-01-15T05:44:29.916Z,1007.83
2018-01-15T05:45:29.900Z,1007.85
2018-01-15T05:46:29.856Z,1007.89
2018-01-15T05:47:29.824Z,1007.81
2018-01-15T05:48:29.813Z,1007.78
2018-01-15T05:49:29.774Z,1007.75
2018-01-15T05:50:29.736Z,1007.74
2018-01-15T05:51:29.726Z,1007.70
2018-01-15T05:52:29.675Z,1007.66
2018-01-15T05:53:29.640Z,1007.65
2018-01-15T05:54:29.633Z,1007.64
2018-01-15T05:55:29.581Z,1007.68
2018-01-15T05:56:29.552Z,1007.63
2018-01-15T05:57:29.535Z,1007.61
2018-01-15T05:58:29.482Z,1007.57
2018-01-15T05:59:29.465Z,1007.59
2018-01-15T06:00:29.435Z,1007.53
2018-01-15T06:01:29.399Z,1007.56
2018-01-15T06:02:29.367Z,1007.61
2018-01-15T06:03:29.423Z,1007.57
2018-01-15T06:04:29.303Z,1007.49
2018-01-15T06:05:29.271Z,1007.49
2018-01-15T06:06:29.307Z,1007.47
2018-01-15T06:07:29.215Z,1007.39
2018-01-15T06:08:29.181Z,1007.31
2018-01-15T06:09:29.162Z,1007.31
2018-01-15T06:10:29.116Z,1007.32
2018-01-15T06:11:29.123Z,1007.31
2018-01-15T06:12:29.064Z,1007.33
2018-01-15T06:13:29.025Z,1007.24
2018-01-15T06:14:28.995Z,1007.24
2018-01-15T06:15:28.971Z,1007.20
2018-01-15T06:16:28.929Z,1007.23
2018-01-15T06:17:28.914Z,1007.16
2018-01-15T06:18:28.867Z,1007.18
2018-01-15T06:19:28.839Z,1007.18
2018-01-15T06:20:28.813Z,1007.16
2018-01-15T06:21:28.784Z,1007.22
2018-01-15T06:22:28.744Z,1007.10
2018-01-15T06:23:28.717Z,1007.18
2018-01-15T06:24:28.687Z,1007.09
2018-01-15T06:25:28.656Z,1007.01
2018-01-15T06:26:28.626Z,1007.13
2018-01-15T06:27:28.593Z,1007.01
2018-01-15T06:28:28.564Z,1007.02
2018-01-15T06:29:28.525Z,1006.98
2018-01-15T06:30:28.495Z,1006.98
2018-01-15T06:31:28.482Z,1006.99
2018-01-15T06:32:28.441Z,1006.96
2018-01-15T06:33:28.404Z,1006.96
2018-01-15T06:34:28.373Z,1006.93
2018-01-15T06:35:28.343Z,1006.92
2018-01-15T06:36:28.349Z,1006.85
2018-01-15T06:37:28.287Z,1006.91
2018-01-15T06:38:28.258Z,1006.77
2018-01-15T06:39:28.227Z,1006.80
2018-01-15T06:40:28.187Z,1006.76
2018-01-15T06:41:28.178Z,1006.77
2018-01-15T06:42:28.135Z,1006.72
2018-01-15T06:43:28.097Z,1006.68
2018-01-15T06:44:28.089Z,1006.65
2018-01-15T06:45:28.085Z,1006.72
2018-01-15T06:46:28.009Z,1006.65
2018-01-15T06:47:27.976Z,1006.64
2018-01-15T06:48:27.970Z,1006.61
2018-01-15T06:49:27.917Z,1006.55
2018-01-15T06:50:27.894Z,1006.52
2018-01-15T06:51:27.852Z,1006.50
2018-01-15T06:52:27.814Z,1006.51
2018-01-15T06:53:27.784Z,1006.44
2018-01-15T06:54:27.754Z,1006.45
2018-01-15T06:55:27.733Z,1006.56
2018-01-15T06:56:27.753Z,1006.52
2018-01-15T06:57:27.663Z,1006.47
2018-01-15T06:58:27.632Z,1006.55
2018-01-15T06:59:27.627Z,1006.46
2018-01-15T07:00:27.573Z,1006.47
2018-01-15T07:01:27.540Z,1006.54
2018-01-15T07:02:27.514Z,1006.55
2018-01-15T07:03:27.487Z,1006.49
2018-01-15T07:04:27.449Z,1006.46
2018-01-15T07:05:27.418Z,1006.46
2018-01-15T07:06:27.389Z,1006.43
2018-01-15T07:07:27.358Z,1006.47
2018-01-15T07:08:27.329Z,1006.46
2018-01-15T07:09:27.315Z,1006.51
2018-01-15T07:10:27.275Z,1006.39
2018-01-15T07:11:27.305Z,1006.33
2018-01-15T07:12:27.199Z,1006.34
2018-01-15T07:13:27.162Z,1006.33
2018-01-15T07:14:27.130Z,1006.35
2018-01-15T07:15:27.113Z,1006.31
2018-01-15T07:16:27.078Z,1006.26
2018-01-15T07:17:27.049Z,1006.28
2018-01-15T07:18:27.014Z,1006.33
2018-01-15T07:19:26.988Z,1006.28
2018-01-15T07:20:26.952Z,1006.29
2018-01-15T07:21:26.922Z,1006.28
2018-01-15T07:22:26.894Z,1006.31
2018-01-15T07:23:26.860Z,1006.27
2018-01-15T07:24:26.831Z,1006.33
2018-01-15T07:25:26.794Z,1006.31
2018-01-15T07:26:26.758Z,1006.34
2018-01-15T07:27:26.731Z,1006.26
2018-01-15T07:28:26.725Z,1006.29
2018-01-15T07:29:26.665Z,1006.26
2018-01-15T07:30:26.638Z,1006.29
2018-01-15T07:31:26.601Z,1006.24
2018-01-15T07:32:26.575Z,1006.23
2018-01-15T07:33:26.545Z,1006.28
2018-01-15T07:34:26.515Z,1006.22
2018-01-15T07:35:26.492Z,1006.22
2018-01-15T07:36:26.452Z,1006.25
2018-01-15T07:37:26.419Z,1006.21
2018-01-15T07:38:26.386Z,1006.19
2018-01-15T07:39:26.355Z,1006.14
2018-01-15T07:40:26.329Z,1006.16
2018-01-15T07:41:26.327Z,1006.12
2018-01-15T07:42:26.261Z,1006.13
2018-01-15T07:43:26.230Z,1006.10
2018-01-15T07:44:26.199Z,1006.15
2018-01-15T07:45:26.176Z,1006.11
2018-01-15T07:46:26.137Z,1006.10
2018-01-15T07:47:26.110Z,1006.09
2018-01-15T07:48:26.101Z,1006.08
2018-01-15T07:49:26.040Z,1006.07
2018-01-15T07:50:26.008Z,1006.06
2018-01-15T07:51:25.978Z,1006.07
2018-01-15T07:52:25.948Z,1006.12
2018-01-15T07:53:25.913Z,1006.05
2018-01-15T07:54:25.886Z,1006.10
2018-01-15T07:55:25.856Z,1006.05
2018-01-15T07:56:25.837Z,1006.02
2018-01-15T07:57:25.799Z,1005.90
2018-01-15T07:58:25.765Z,1005.91
2018-01-15T07:59:25.736Z,1005.99
2018-01-15T08:00:25.708Z,1005.94
2018-01-15T08:01:25.669Z,1005.93
2018-01-15T08:02:25.638Z,1005.95
2018-01-15T08:03:25.618Z,1005.89
2018-01-15T08:04:25.585Z,1005.93
2018-01-15T08:05:25.543Z,1005.92
2018-01-15T08:06:25.515Z,1005.91
2018-01-15T08:07:25.516Z,1005.83
2018-01-15T08:08:25.447Z,1005.83
2018-01-15T08:09:25.427Z,1005.83
2018-01-15T08:10:25.386Z,1005.87
2018-01-15T08:11:25.361Z,1005.79
2018-01-15T08:12:25.335Z,1005.80
2018-01-15T08:13:25.302Z,1005.82
2018-01-15T08:14:25.268Z,1005.72
2018-01-15T08:15:25.236Z,1005.81
2018-01-15T08:16:25.208Z,1005.82
2018-01-15T08:17:25.203Z,1005.79
2018-01-15T08:18:25.141Z,1005.84
2018-01-15T08:19:25.113Z,1005.79
2018-01-15T08:20:25.079Z,1005.73
2018-01-15T08:21:25.085Z,1005.81
2018-01-15T08:22:25.027Z,1005.74
2018-01-15T08:23:24.996Z,1005.78
2018-01-15T08:24:24.973Z,1005.77
2018-01-15T08:25:24.922Z,1005.77
2018-01-15T08:26:24.916Z,1005.75
2018-01-15T08:27:24.893Z,1005.72
2018-01-15T08:28:24.841Z,1005.72
2018-01-15T08:29:24.802Z,1005.71
2018-01-15T08:30:24.772Z,1005.63
2018-01-15T08:31:24.744Z,1005.66
2018-01-15T08:32:24.711Z,1005.68
2018-01-15T08:33:24.682Z,1005.70
2018-01-15T08:34:24.651Z,1005.74
2018-01-15T08:35:24.616Z,1005.68
2018-01-15T08:36:24.584Z,1005.70
2018-01-15T08:37:24.550Z,1005.81
2018-01-15T08:38:24.520Z,1005.73
2018-01-15T08:39:24.530Z,1005.72
2018-01-15T08:40:24.457Z,1005.71
2018-01-15T08:41:24.428Z,1005.68
2018-01-15T08:42:24.408Z,1005.63
2018-01-15T08:43:24.370Z,1005.63
2018-01-15T08:44:24.348Z,1005.59
2018-01-15T08:45:24.308Z,1005.61
2018-01-15T08:46:24.274Z,1005.55
2018-01-15T08:47:24.245Z,1005.56
2018-01-15T08:48:24.210Z,1005.53
2018-01-15T08:49:24.196Z,1005.48
2018-01-15T08:50:24.148Z,1005.46
2018-01-15T08:51:24.121Z,1005.39
2018-01-15T08:52:24.094Z,1005.47
2018-01-15T08:53:24.059Z,1005.40
2018-01-15T08:54:24.033Z,1005.39
2018-01-15T08:55:24.000Z,1005.29
2018-01-15T08:56:23.968Z,1005.25
2018-01-15T08:57:23.935Z,1005.34
2018-01-15T08:58:23.933Z,1005.35
2018-01-15T08:59:23.875Z,1005.25
2018-01-15T09:00:23.841Z,1005.34
2018-01-15T09:01:23.811Z,1005.31
2018-01-15T09:02:23.782Z,1005.28
2018-01-15T09:03:23.750Z,1005.32
2018-01-15T09:04:23.721Z,1005.30
2018-01-15T09:05:23.686Z,1005.23
2018-01-15T09:06:23.656Z,1005.19
2018-01-15T09:07:23.625Z,1005.16
2018-01-15T09:08:23.598Z,1005.15
2018-01-15T09:09:23.568Z,1005.15
2018-01-15T09:10:23.543Z,1005.10
2018-01-15T09:11:23.506Z,1005.11
2018-01-15T09:12:23.493Z,1005.07
2018-01-15T09:13:23.491Z,1005.10
2018-01-15T09:14:23.425Z,1005.03
2018-01-15T09:15:23.384Z,1004.99
2018-01-15T09:16:23.354Z,1005.07
2018-01-15T09:17:23.320Z,1005.07
2018-01-15T09:18:23.309Z,1004.94
2018-01-15T09:19:23.262Z,1005.01
2018-01-15T09:20:23.233Z,1004.89
2018-01-15T09:21:23.196Z,1004.91
2018-01-15T09:22:23.175Z,1004.87
2018-01-15T09:23:23.141Z,1004.82
2018-01-15T09:24:23.110Z,1004.81
2018-01-15T09:25:23.084Z,1004.74
2018-01-15T09:26:23.057Z,1004.79
2018-01-15T09:27:23.019Z,1004.81
2018-01-15T09:28:22.990Z,1004.75
2018-01-15T09:29:22.957Z,1004.76
2018-01-15T09:30:22.925Z,1004.69
2018-01-15T09:31:22.903Z,1004.64
2018-01-15T09:32:22.862Z,1004.70
2018-01-15T09:33:22.836Z,1004.61
2018-01-15T09:34:22.805Z,1004.64
2018-01-15T09:35:22.770Z,1004.62
2018-01-15T09:36:22.748Z,1004.63
2018-01-15T09:37:22.719Z,1004.61
2018-01-15T09:38:22.683Z,1004.69
2018-01-15T09:39:22.692Z,1004.56
2018-01-15T09:40:22.627Z,1004.61
2018-01-15T09:41:22.659Z,1004.58
2018-01-15T09:42:22.573Z,1004.50
2018-01-15T09:43:22.536Z,1004.46
2018-01-15T09:44:22.509Z,1004.53
2018-01-15T09:45:22.476Z,1004.54
2018-01-15T09:46:22.441Z,1004.54
2018-01-15T09:47:22.412Z,1004.47
2018-01-15T09:48:22.388Z,1004.46
2018-01-15T09:49:22.347Z,1004.53
2018-01-15T09:50:22.323Z,1004.45
2018-01-15T09:51:22.291Z,1004.49
2018-01-15T09:52:22.263Z,1004.45
2018-01-15T09:53:22.231Z,1004.47
2018-01-15T09:54:22.200Z,1004.46
2018-01-15T09:55:22.174Z,1004.38
2018-01-15T09:56:22.150Z,1004.27
2018-01-15T09:57:22.148Z,1004.34
2018-01-15T09:58:22.082Z,1004.30
2018-01-15T09:59:22.054Z,1004.35
2018-01-15T10:00:22.029Z,1004.22
2018-01-15T10:01:21.995Z,1004.20
2018-01-15T10:02:21.964Z,1004.27
2018-01-15T10:03:21.933Z,1004.19
2018-01-15T10:04:21.904Z,1004.23
2018-01-15T10:05:21.893Z,1004.21
2018-01-15T10:06:21.851Z,1004.27
2018-01-15T10:07:21.845Z,1004.22
2018-01-15T10:08:21.783Z,1004.27
2018-01-15T10:09:21.749Z,1004.19
2018-01-15T10:10:21.728Z,1004.17
2018-01-15T10:11:21.689Z,1004.10
2018-01-15T10:12:21.668Z,1004.05
2018-01-15T10:13:21.633Z,1004.06
2018-01-15T10:14:21.603Z,1003.98
2018-01-15T10:15:21.598Z,1004.04
2018-01-15T10:16:21.559Z,1004.04
2018-01-15T10:17:21.520Z,1004.04
2018-01-15T10:18:21.495Z,1003.96
2018-01-15T10:19:21.452Z,1003.92
2018-01-15T10:20:21.427Z,1003.89
2018-01-15T10:21:21.390Z,1003.90
2018-01-15T10:22:21.358Z,1003.92
2018-01-15T10:23:21.333Z,1003.84
2018-01-15T10:24:21.326Z,1003.75
2018-01-15T10:25:21.269Z,1003.76
2018-01-15T10:26:21.241Z,1003.72
2018-01-15T10:27:21.216Z,1003.68
2018-01-15T10:28:21.188Z,1003.61
2018-01-15T10:29:21.158Z,1003.70
2018-01-15T10:30:21.130Z,1003.64
2018-01-15T10:31:21.100Z,1003.68
2018-01-15T10:32:21.071Z,1003.62
2018-01-15T10:33:21.038Z,1003.48
2018-01-15T10:34:21.009Z,1003.50
2018-01-15T10:35:20.979Z,1003.44
2018-01-15T10:36:20.944Z,1003.47
2018-01-15T10:37:20.914Z,1003.35
2018-01-15T10:38:20.914Z,1003.39
2018-01-15T10:39:20.862Z,1003.40
2018-01-15T10:40:20.842Z,1003.24
2018-01-15T10:41:20.795Z,1003.28
2018-01-15T10:42:20.765Z,1003.19
2018-01-15T10:43:20.740Z,1003.32
2018-01-15T10:44:20.722Z,1003.48
2018-01-15T10:45:20.685Z,1003.23
2018-01-15T10:46:20.652Z,1003.17
2018-01-15T10:47:20.621Z,1003.15
2018-01-15T10:48:20.595Z,1003.10
2018-01-15T10:49:20.567Z,1003.09
2018-01-15T10:50:20.542Z,1003.06
2018-01-15T10:51:20.514Z,1002.99
2018-01-15T10:52:20.475Z,1002.92
2018-01-15T10:53:20.503Z,1002.93
2018-01-15T10:54:20.413Z,1002.91
2018-01-15T10:55:20.385Z,1002.85
2018-01-15T10:56:20.358Z,1002.90
2018-01-15T10:57:20.326Z,1002.88
2018-01-15T10:58:20.295Z,1002.78
2018-01-15T10:59:20.273Z,1002.77
2018-01-15T11:00:20.233Z,1002.70
2018-01-15T11:01:20.204Z,1002.74
2018-01-15T11:02:20.175Z,1002.76
2018-01-15T11:03:20.148Z,1002.76
2018-01-15T11:04:20.124Z,1002.70
2018-01-15T11:05:20.085Z,1002.62
2018-01-15T11:06:20.055Z,1002.57
2018-01-15T11:07:20.027Z,1002.59
2018-01-15T11:08:20.004Z,1002.51
2018-01-15T11:09:19.976Z,1002.49
2018-01-15T11:10:19.945Z,1002.43
2018-01-15T11:11:19.922Z,1002.35
2018-01-15T11:12:19.881Z,1002.33
2018-01-15T11:13:19.850Z,1002.33
2018-01-15T11:14:19.823Z,1002.36
2018-01-15T11:15:19.830Z,1002.26
2018-01-15T11:16:19.764Z,1002.21
2018-01-15T11:17:19.739Z,1002.24
2018-01-15T11:18:19.727Z,1002.14
2018-01-15T11:19:19.673Z,1002.14
2018-01-15T11:20:19.649Z,1002.04
2018-01-15T11:21:19.618Z,1001.91
2018-01-15T11:22:19.582Z,1001.91
2018-01-15T11:23:19.568Z,1001.91
2018-01-15T11:24:19.527Z,1001.95
2018-01-15T11:25:19.503Z,1001.93
2018-01-15T11:26:19.499Z,1001.96
2018-01-15T11:27:19.443Z,1001.85
2018-01-15T11:28:19.421Z,1001.88
2018-01-15T11:29:19.383Z,1001.87
2018-01-15T11:30:19.355Z,1001.82
2018-01-15T11:31:19.430Z,1001.69
2018-01-15T11:32:19.355Z,1001.75
2018-01-15T11:33:19.261Z,1001.68
2018-01-15T11:34:19.257Z,1001.78
2018-01-15T11:35:19.240Z,1001.74
2018-01-15T11:36:19.179Z,1001.67
2018-01-15T11:37:19.155Z,1001.79
2018-01-15T11:38:19.120Z,1001.64
2018-01-15T11:39:19.089Z,1001.57
2018-01-15T11:40:19.064Z,1001.55
2018-01-15T11:41:19.035Z,1001.51
2018-01-15T11:42:19.003Z,1001.37
2018-01-15T11:43:18.971Z,1001.57
2018-01-15T11:44:18.944Z,1001.33
2018-01-15T11:45:18.925Z,1001.34
2018-01-15T11:46:18.882Z,1001.25
2018-01-15T11:47:18.865Z,1001.21
2018-01-15T11:48:18.830Z,1001.26
2018-01-15T11:49:18.793Z,1001.16
2018-01-15T11:50:18.762Z,1001.15
2018-01-15T11:51:18.737Z,1001.10
2018-01-15T11:52:18.703Z,1001.00
2018-01-15T11:53:18.683Z,1001.03
2018-01-15T11:54:18.648Z,1000.93
2018-01-15T11:55:18.618Z,1000.97
2018-01-15T11:56:18.594Z,1000.94
2018-01-15T11:57:18.566Z,1000.81
2018-01-15T11:58:18.533Z,1000.75
2018-01-15T11:59:18.501Z,1000.74
2018-01-15T12:00:18.496Z,1000.75
2018-01-15T12:01:18.438Z,1000.78
2018-01-15T12:02:18.417Z,1000.66
2018-01-15T12:03:18.381Z,1000.59
2018-01-15T12:04:18.357Z,1000.57
2018-01-15T12:05:18.324Z,1000.41